sensor_id;sensor_type;location;lat;lon;timestamp;P1;durP1;ratioP1;P2;durP2;ratioP2
41077;SDS011;26823;42.662;23.352;2022-12-19T00:02:05;19.45;;;9.10;;
41077;SDS011;26823;42.662;23.352;2022-12-19T00:04:31;16.65;;;8.60;;
41077;SDS011;26823;42.662;23.352;2022-12-19T00:06:57;16.98;;;8.52;;
41077;SDS011;26823;42.662;23.352;2022-12-19T00:09:23;20.50;;;10.10;;
41077;SDS011;26823;42.662;23.352;2022-12-19T00:11:49;15.70;;;9.10;;
41077;SDS011;26823;42.662;23.352;2022-12-19T00:14:14;15.95;;;8.45;;
41077;SDS011;26823;42.662;23.352;2022-12-19T00:16:41;21.83;;;9.55;;
41077;SDS011;26823;42.662;23.352;2022-12-19T00:19:08;15.10;;;7.72;;
41077;SDS011;26823;42.662;23.352;2022-12-19T00:21:35;17.45;;;9.10;;
41077;SDS011;26823;42.662;23.352;2022-12-19T00:24:02;16.40;;;8.18;;
41077;SDS011;26823;42.662;23.352;2022-12-19T00:26:30;17.73;;;8.70;;
41077;SDS011;26823;42.662;23.352;2022-12-19T00:28:58;17.55;;;8.82;;
41077;SDS011;26823;42.662;23.352;2022-12-19T00:31:27;20.55;;;7.55;;
41077;SDS011;26823;42.662;23.352;2022-12-19T00:33:54;15.88;;;8.00;;
41077;SDS011;26823;42.662;23.352;2022-12-19T00:36:21;15.65;;;8.07;;
41077;SDS011;26823;42.662;23.352;2022-12-19T00:38:48;15.73;;;8.07;;
41077;SDS011;26823;42.662;23.352;2022-12-19T00:41:18;16.75;;;8.13;;
41077;SDS011;26823;42.662;23.352;2022-12-19T00:43:45;16.92;;;9.15;;
41077;SDS011;26823;42.662;23.352;2022-12-19T00:46:11;17.10;;;9.25;;
41077;SDS011;26823;42.662;23.352;2022-12-19T00:48:38;16.13;;;9.18;;
41077;SDS011;26823;42.662;23.352;2022-12-19T00:51:10;17.20;;;8.23;;
41077;SDS011;26823;42.662;23.352;2022-12-19T00:53:38;18.60;;;8.73;;
41077;SDS011;26823;42.662;23.352;2022-12-19T00:56:05;18.02;;;8.95;;
41077;SDS011;26823;42.662;23.352;2022-12-19T00:58:34;16.73;;;8.48;;
41077;SDS011;26823;42.662;23.352;2022-12-19T01:01:04;16.83;;;7.80;;
41077;SDS011;26823;42.662;23.352;2022-12-19T01:03:31;16.67;;;7.80;;
41077;SDS011;26823;42.662;23.352;2022-12-19T01:05:56;17.55;;;8.23;;
41077;SDS011;26823;42.662;23.352;2022-12-19T01:08:22;16.42;;;7.45;;
41077;SDS011;26823;42.662;23.352;2022-12-19T01:10:48;14.55;;;7.45;;
41077;SDS011;26823;42.662;23.352;2022-12-19T01:13:15;15.25;;;8.63;;
41077;SDS011;26823;42.662;23.352;2022-12-19T01:15:41;17.67;;;8.35;;
41077;SDS011;26823;42.662;23.352;2022-12-19T01:18:07;17.30;;;8.63;;
41077;SDS011;26823;42.662;23.352;2022-12-19T01:20:36;16.60;;;8.23;;
41077;SDS011;26823;42.662;23.352;2022-12-19T01:23:04;17.58;;;9.30;;
41077;SDS011;26823;42.662;23.352;2022-12-19T01:25:30;18.75;;;8.48;;
41077;SDS011;26823;42.662;23.352;2022-12-19T01:28:05;18.65;;;8.70;;
41077;SDS011;26823;42.662;23.352;2022-12-19T01:30:30;15.25;;;8.15;;
41077;SDS011;26823;42.662;23.352;2022-12-19T01:32:56;17.67;;;9.30;;
41077;SDS011;26823;42.662;23.352;2022-12-19T01:35:22;19.80;;;8.65;;
41077;SDS011;26823;42.662;23.352;2022-12-19T01:37:49;19.98;;;9.48;;
41077;SDS011;26823;42.662;23.352;2022-12-19T01:40:15;18.77;;;9.35;;
41077;SDS011;26823;42.662;23.352;2022-12-19T01:42:41;18.00;;;9.02;;
41077;SDS011;26823;42.662;23.352;2022-12-19T01:47:35;20.73;;;9.70;;
41077;SDS011;26823;42.662;23.352;2022-12-19T01:50:13;17.75;;;7.32;;
41077;SDS011;26823;42.662;23.352;2022-12-19T01:52:41;19.15;;;8.20;;
41077;SDS011;26823;42.662;23.352;2022-12-19T01:55:07;17.92;;;7.85;;
41077;SDS011;26823;42.662;23.352;2022-12-19T01:57:34;19.60;;;9.88;;
41077;SDS011;26823;42.662;23.352;2022-12-19T02:00:00;21.45;;;9.15;;
41077;SDS011;26823;42.662;23.352;2022-12-19T02:02:32;22.52;;;8.85;;
41077;SDS011;26823;42.662;23.352;2022-12-19T02:05:01;21.42;;;8.85;;
41077;SDS011;26823;42.662;23.352;2022-12-19T02:07:28;21.45;;;10.10;;
41077;SDS011;26823;42.662;23.352;2022-12-19T02:09:55;15.70;;;8.65;;
41077;SDS011;26823;42.662;23.352;2022-12-19T02:12:22;15.95;;;8.15;;
41077;SDS011;26823;42.662;23.352;2022-12-19T02:14:49;17.75;;;8.27;;
41077;SDS011;26823;42.662;23.352;2022-12-19T02:38:38;15.20;;;8.48;;
41077;SDS011;26823;42.662;23.352;2022-12-19T02:43:53;17.52;;;8.18;;
41077;SDS011;26823;42.662;23.352;2022-12-19T02:46:21;23.58;;;9.75;;
41077;SDS011;26823;42.662;23.352;2022-12-19T02:48:48;17.88;;;8.52;;
41077;SDS011;26823;42.662;23.352;2022-12-19T02:51:14;20.23;;;9.07;;
41077;SDS011;26823;42.662;23.352;2022-12-19T02:53:40;15.05;;;7.60;;
41077;SDS011;26823;42.662;23.352;2022-12-19T02:56:26;21.27;;;9.48;;
41077;SDS011;26823;42.662;23.352;2022-12-19T02:59:09;18.33;;;9.13;;
41077;SDS011;26823;42.662;23.352;2022-12-19T03:08:06;15.05;;;7.88;;
41077;SDS011;26823;42.662;23.352;2022-12-19T03:15:59;19.50;;;8.25;;
41077;SDS011;26823;42.662;23.352;2022-12-19T03:18:26;20.02;;;9.43;;
41077;SDS011;26823;42.662;23.352;2022-12-19T03:21:03;18.65;;;9.02;;
41077;SDS011;26823;42.662;23.352;2022-12-19T03:23:40;21.45;;;8.82;;
41077;SDS011;26823;42.662;23.352;2022-12-19T03:26:10;18.83;;;9.55;;
41077;SDS011;26823;42.662;23.352;2022-12-19T03:31:23;19.50;;;9.13;;
41077;SDS011;26823;42.662;23.352;2022-12-19T03:33:56;14.80;;;8.48;;
41077;SDS011;26823;42.662;23.352;2022-12-19T03:36:41;17.63;;;8.55;;
41077;SDS011;26823;42.662;23.352;2022-12-19T03:39:11;16.70;;;8.30;;
41077;SDS011;26823;42.662;23.352;2022-12-19T03:41:38;18.77;;;8.73;;
41077;SDS011;26823;42.662;23.352;2022-12-19T03:44:25;16.70;;;8.65;;
41077;SDS011;26823;42.662;23.352;2022-12-19T03:46:57;16.58;;;8.93;;
41077;SDS011;26823;42.662;23.352;2022-12-19T03:49:29;20.42;;;8.98;;
41077;SDS011;26823;42.662;23.352;2022-12-19T03:51:58;17.75;;;8.30;;
41077;SDS011;26823;42.662;23.352;2022-12-19T03:54:49;18.05;;;9.10;;
41077;SDS011;26823;42.662;23.352;2022-12-19T03:57:27;15.50;;;8.90;;
41077;SDS011;26823;42.662;23.352;2022-12-19T04:00:05;16.42;;;8.15;;
41077;SDS011;26823;42.662;23.352;2022-12-19T04:02:37;17.75;;;8.90;;
41077;SDS011;26823;42.662;23.352;2022-12-19T04:05:06;17.67;;;8.88;;
41077;SDS011;26823;42.662;23.352;2022-12-19T04:07:35;18.02;;;9.05;;
41077;SDS011;26823;42.662;23.352;2022-12-19T04:10:03;19.05;;;9.30;;
41077;SDS011;26823;42.662;23.352;2022-12-19T04:12:33;18.27;;;8.93;;
41077;SDS011;26823;42.662;23.352;2022-12-19T04:17:46;17.65;;;8.77;;
41077;SDS011;26823;42.662;23.352;2022-12-19T04:20:13;17.40;;;8.80;;
41077;SDS011;26823;42.662;23.352;2022-12-19T04:25:10;21.70;;;9.52;;
41077;SDS011;26823;42.662;23.352;2022-12-19T04:27:40;16.55;;;8.68;;
41077;SDS011;26823;42.662;23.352;2022-12-19T04:30:14;21.70;;;9.73;;
41077;SDS011;26823;42.662;23.352;2022-12-19T04:32:41;21.20;;;8.88;;
41077;SDS011;26823;42.662;23.352;2022-12-19T04:35:07;16.50;;;7.63;;
41077;SDS011;26823;42.662;23.352;2022-12-19T04:37:33;18.05;;;8.73;;
41077;SDS011;26823;42.662;23.352;2022-12-19T04:39:59;18.17;;;8.77;;
41077;SDS011;26823;42.662;23.352;2022-12-19T04:42:24;18.52;;;9.27;;
41077;SDS011;26823;42.662;23.352;2022-12-19T04:44:50;18.38;;;8.50;;
41077;SDS011;26823;42.662;23.352;2022-12-19T04:47:15;21.30;;;9.73;;
41077;SDS011;26823;42.662;23.352;2022-12-19T04:49:40;17.00;;;10.00;;
41077;SDS011;26823;42.662;23.352;2022-12-19T04:52:06;25.08;;;9.07;;
41077;SDS011;26823;42.662;23.352;2022-12-19T04:54:32;22.25;;;9.15;;
41077;SDS011;26823;42.662;23.352;2022-12-19T04:56:58;17.42;;;9.55;;
41077;SDS011;26823;42.662;23.352;2022-12-19T04:59:23;20.40;;;9.40;;
41077;SDS011;26823;42.662;23.352;2022-12-19T05:01:49;21.73;;;9.23;;
41077;SDS011;26823;42.662;23.352;2022-12-19T05:04:14;19.92;;;9.90;;
41077;SDS011;26823;42.662;23.352;2022-12-19T05:06:40;23.02;;;10.05;;
41077;SDS011;26823;42.662;23.352;2022-12-19T05:09:05;20.77;;;9.35;;
41077;SDS011;26823;42.662;23.352;2022-12-19T05:11:30;25.13;;;9.43;;
41077;SDS011;26823;42.662;23.352;2022-12-19T05:14:10;19.33;;;8.85;;
41077;SDS011;26823;42.662;23.352;2022-12-19T05:16:43;20.40;;;8.88;;
41077;SDS011;26823;42.662;23.352;2022-12-19T05:19:08;17.70;;;9.85;;
41077;SDS011;26823;42.662;23.352;2022-12-19T05:21:33;17.52;;;9.43;;
41077;SDS011;26823;42.662;23.352;2022-12-19T05:23:59;28.98;;;8.82;;
41077;SDS011;26823;42.662;23.352;2022-12-19T05:26:24;16.67;;;8.35;;
41077;SDS011;26823;42.662;23.352;2022-12-19T05:28:49;19.45;;;9.00;;
41077;SDS011;26823;42.662;23.352;2022-12-19T05:31:16;15.65;;;7.70;;
41077;SDS011;26823;42.662;23.352;2022-12-19T05:33:46;20.60;;;9.25;;
41077;SDS011;26823;42.662;23.352;2022-12-19T05:36:13;19.58;;;9.85;;
41077;SDS011;26823;42.662;23.352;2022-12-19T05:38:40;24.20;;;9.85;;
41077;SDS011;26823;42.662;23.352;2022-12-19T05:41:06;19.75;;;9.40;;
41077;SDS011;26823;42.662;23.352;2022-12-19T05:43:33;18.00;;;8.90;;
41077;SDS011;26823;42.662;23.352;2022-12-19T05:45:58;18.83;;;9.55;;
41077;SDS011;26823;42.662;23.352;2022-12-19T05:48:24;15.75;;;7.63;;
41077;SDS011;26823;42.662;23.352;2022-12-19T05:50:49;19.45;;;9.18;;
41077;SDS011;26823;42.662;23.352;2022-12-19T05:53:15;18.35;;;9.70;;
41077;SDS011;26823;42.662;23.352;2022-12-19T05:55:41;21.50;;;8.82;;
41077;SDS011;26823;42.662;23.352;2022-12-19T05:58:07;16.77;;;9.18;;
41077;SDS011;26823;42.662;23.352;2022-12-19T06:00:32;18.13;;;8.05;;
41077;SDS011;26823;42.662;23.352;2022-12-19T06:02:57;20.17;;;9.40;;
41077;SDS011;26823;42.662;23.352;2022-12-19T06:05:23;18.25;;;9.15;;
41077;SDS011;26823;42.662;23.352;2022-12-19T06:07:48;20.23;;;9.38;;
41077;SDS011;26823;42.662;23.352;2022-12-19T06:10:14;21.73;;;10.00;;
41077;SDS011;26823;42.662;23.352;2022-12-19T06:12:39;22.92;;;8.60;;
41077;SDS011;26823;42.662;23.352;2022-12-19T06:15:05;20.80;;;10.02;;
41077;SDS011;26823;42.662;23.352;2022-12-19T06:17:30;17.17;;;9.15;;
41077;SDS011;26823;42.662;23.352;2022-12-19T06:19:56;17.65;;;9.30;;
41077;SDS011;26823;42.662;23.352;2022-12-19T06:22:21;20.70;;;9.32;;
41077;SDS011;26823;42.662;23.352;2022-12-19T06:24:48;15.57;;;9.60;;
41077;SDS011;26823;42.662;23.352;2022-12-19T06:27:13;20.88;;;9.32;;
41077;SDS011;26823;42.662;23.352;2022-12-19T06:29:39;19.38;;;9.65;;
41077;SDS011;26823;42.662;23.352;2022-12-19T06:32:04;17.25;;;7.90;;
41077;SDS011;26823;42.662;23.352;2022-12-19T06:34:30;20.30;;;9.07;;
41077;SDS011;26823;42.662;23.352;2022-12-19T06:36:55;17.95;;;9.27;;
41077;SDS011;26823;42.662;23.352;2022-12-19T06:39:27;18.60;;;8.65;;
41077;SDS011;26823;42.662;23.352;2022-12-19T06:41:52;22.27;;;8.77;;
41077;SDS011;26823;42.662;23.352;2022-12-19T06:44:36;11.37;;;6.67;;
41077;SDS011;26823;42.662;23.352;2022-12-19T06:47:01;17.98;;;8.55;;
41077;SDS011;26823;42.662;23.352;2022-12-19T06:49:27;20.42;;;9.55;;
41077;SDS011;26823;42.662;23.352;2022-12-19T06:51:52;17.00;;;9.02;;
41077;SDS011;26823;42.662;23.352;2022-12-19T06:54:17;19.83;;;9.73;;
41077;SDS011;26823;42.662;23.352;2022-12-19T06:56:43;17.40;;;8.57;;
41077;SDS011;26823;42.662;23.352;2022-12-19T06:59:13;20.15;;;9.70;;
41077;SDS011;26823;42.662;23.352;2022-12-19T07:04:37;17.48;;;8.93;;
41077;SDS011;26823;42.662;23.352;2022-12-19T07:07:07;24.73;;;9.25;;
41077;SDS011;26823;42.662;23.352;2022-12-19T07:09:33;20.92;;;9.93;;
41077;SDS011;26823;42.662;23.352;2022-12-19T07:11:59;22.98;;;10.75;;
41077;SDS011;26823;42.662;23.352;2022-12-19T07:14:25;17.85;;;9.27;;
41077;SDS011;26823;42.662;23.352;2022-12-19T07:16:50;22.75;;;9.77;;
41077;SDS011;26823;42.662;23.352;2022-12-19T07:19:18;20.67;;;9.65;;
41077;SDS011;26823;42.662;23.352;2022-12-19T07:21:44;19.92;;;9.85;;
41077;SDS011;26823;42.662;23.352;2022-12-19T07:24:10;25.55;;;11.25;;
41077;SDS011;26823;42.662;23.352;2022-12-19T07:26:36;23.00;;;11.07;;
41077;SDS011;26823;42.662;23.352;2022-12-19T07:29:02;21.42;;;10.25;;
41077;SDS011;26823;42.662;23.352;2022-12-19T07:31:28;24.02;;;10.95;;
41077;SDS011;26823;42.662;23.352;2022-12-19T07:33:53;30.17;;;12.82;;
41077;SDS011;26823;42.662;23.352;2022-12-19T07:36:19;28.13;;;13.07;;
41077;SDS011;26823;42.662;23.352;2022-12-19T07:38:44;25.48;;;12.10;;
41077;SDS011;26823;42.662;23.352;2022-12-19T07:41:09;29.95;;;13.18;;
41077;SDS011;26823;42.662;23.352;2022-12-19T07:43:35;35.70;;;14.55;;
41077;SDS011;26823;42.662;23.352;2022-12-19T07:46:00;27.13;;;12.55;;
41077;SDS011;26823;42.662;23.352;2022-12-19T07:48:26;34.40;;;14.15;;
41077;SDS011;26823;42.662;23.352;2022-12-19T07:50:52;29.00;;;13.25;;
41077;SDS011;26823;42.662;23.352;2022-12-19T07:53:18;28.42;;;13.18;;
41077;SDS011;26823;42.662;23.352;2022-12-19T07:55:43;31.98;;;12.93;;
41077;SDS011;26823;42.662;23.352;2022-12-19T07:58:09;25.90;;;13.05;;
41077;SDS011;26823;42.662;23.352;2022-12-19T08:00:35;27.65;;;11.93;;
41077;SDS011;26823;42.662;23.352;2022-12-19T08:03:01;30.10;;;12.77;;
41077;SDS011;26823;42.662;23.352;2022-12-19T08:05:26;23.83;;;13.18;;
41077;SDS011;26823;42.662;23.352;2022-12-19T08:07:52;25.85;;;13.35;;
41077;SDS011;26823;42.662;23.352;2022-12-19T08:10:17;33.70;;;13.43;;
41077;SDS011;26823;42.662;23.352;2022-12-19T08:12:43;33.53;;;15.45;;
41077;SDS011;26823;42.662;23.352;2022-12-19T08:15:09;27.75;;;15.48;;
41077;SDS011;26823;42.662;23.352;2022-12-19T08:17:35;28.15;;;13.50;;
41077;SDS011;26823;42.662;23.352;2022-12-19T08:20:00;32.80;;;15.48;;
41077;SDS011;26823;42.662;23.352;2022-12-19T08:22:27;31.83;;;14.77;;
41077;SDS011;26823;42.662;23.352;2022-12-19T08:24:54;33.47;;;15.20;;
41077;SDS011;26823;42.662;23.352;2022-12-19T08:27:19;32.25;;;14.45;;
41077;SDS011;26823;42.662;23.352;2022-12-19T08:29:44;27.98;;;13.80;;
41077;SDS011;26823;42.662;23.352;2022-12-19T08:32:11;27.70;;;14.63;;
41077;SDS011;26823;42.662;23.352;2022-12-19T08:34:36;28.85;;;13.88;;
41077;SDS011;26823;42.662;23.352;2022-12-19T08:37:01;25.60;;;13.80;;
41077;SDS011;26823;42.662;23.352;2022-12-19T08:39:27;28.92;;;14.73;;
41077;SDS011;26823;42.662;23.352;2022-12-19T08:41:52;29.75;;;14.57;;
41077;SDS011;26823;42.662;23.352;2022-12-19T08:44:18;29.20;;;13.55;;
41077;SDS011;26823;42.662;23.352;2022-12-19T08:46:44;31.92;;;14.10;;
41077;SDS011;26823;42.662;23.352;2022-12-19T08:49:09;29.55;;;14.07;;
41077;SDS011;26823;42.662;23.352;2022-12-19T08:51:35;32.22;;;16.75;;
41077;SDS011;26823;42.662;23.352;2022-12-19T08:54:00;29.35;;;13.80;;
41077;SDS011;26823;42.662;23.352;2022-12-19T08:56:25;29.25;;;14.02;;
41077;SDS011;26823;42.662;23.352;2022-12-19T08:58:51;25.33;;;12.80;;
41077;SDS011;26823;42.662;23.352;2022-12-19T09:01:17;33.03;;;14.57;;
41077;SDS011;26823;42.662;23.352;2022-12-19T09:03:44;27.50;;;13.18;;
41077;SDS011;26823;42.662;23.352;2022-12-19T09:06:13;25.48;;;12.52;;
41077;SDS011;26823;42.662;23.352;2022-12-19T09:08:40;29.90;;;13.30;;
41077;SDS011;26823;42.662;23.352;2022-12-19T09:11:06;27.88;;;13.90;;
41077;SDS011;26823;42.662;23.352;2022-12-19T09:13:34;22.08;;;12.00;;
41077;SDS011;26823;42.662;23.352;2022-12-19T09:16:05;31.80;;;13.88;;
41077;SDS011;26823;42.662;23.352;2022-12-19T09:18:32;26.58;;;13.80;;
41077;SDS011;26823;42.662;23.352;2022-12-19T09:20:58;27.92;;;12.85;;
41077;SDS011;26823;42.662;23.352;2022-12-19T09:23:24;23.85;;;12.73;;
41077;SDS011;26823;42.662;23.352;2022-12-19T09:25:51;22.52;;;12.35;;
41077;SDS011;26823;42.662;23.352;2022-12-19T09:28:21;24.42;;;12.10;;
41077;SDS011;26823;42.662;23.352;2022-12-19T09:30:54;25.58;;;11.43;;
41077;SDS011;26823;42.662;23.352;2022-12-19T09:33:20;13.47;;;8.13;;
41077;SDS011;26823;42.662;23.352;2022-12-19T09:35:50;28.02;;;10.80;;
41077;SDS011;26823;42.662;23.352;2022-12-19T09:38:16;21.38;;;10.30;;
41077;SDS011;26823;42.662;23.352;2022-12-19T09:40:47;24.33;;;10.27;;
41077;SDS011;26823;42.662;23.352;2022-12-19T09:46:01;24.65;;;10.15;;
41077;SDS011;26823;42.662;23.352;2022-12-19T09:48:29;23.88;;;10.75;;
41077;SDS011;26823;42.662;23.352;2022-12-19T09:50:59;17.60;;;8.73;;
41077;SDS011;26823;42.662;23.352;2022-12-19T09:54:17;26.65;;;10.98;;
41077;SDS011;26823;42.662;23.352;2022-12-19T09:56:27;25.17;;;11.68;;
41077;SDS011;26823;42.662;23.352;2022-12-19T09:58:57;19.95;;;9.20;;
41077;SDS011;26823;42.662;23.352;2022-12-19T10:01:31;24.25;;;12.70;;
41077;SDS011;26823;42.662;23.352;2022-12-19T10:04:05;23.98;;;11.13;;
41077;SDS011;26823;42.662;23.352;2022-12-19T10:06:34;22.48;;;10.32;;
41077;SDS011;26823;42.662;23.352;2022-12-19T10:09:00;20.80;;;9.55;;
41077;SDS011;26823;42.662;23.352;2022-12-19T10:17:09;19.63;;;8.57;;
41077;SDS011;26823;42.662;23.352;2022-12-19T10:22:49;20.48;;;9.82;;
41077;SDS011;26823;42.662;23.352;2022-12-19T10:31:16;25.73;;;11.65;;
41077;SDS011;26823;42.662;23.352;2022-12-19T10:33:56;25.30;;;12.25;;
41077;SDS011;26823;42.662;23.352;2022-12-19T10:36:28;22.23;;;11.20;;
41077;SDS011;26823;42.662;23.352;2022-12-19T10:39:07;27.35;;;12.27;;
41077;SDS011;26823;42.662;23.352;2022-12-19T10:41:40;22.67;;;9.07;;
41077;SDS011;26823;42.662;23.352;2022-12-19T10:44:08;30.55;;;12.70;;
41077;SDS011;26823;42.662;23.352;2022-12-19T10:49:15;26.10;;;11.65;;
41077;SDS011;26823;42.662;23.352;2022-12-19T10:52:04;28.65;;;12.25;;
41077;SDS011;26823;42.662;23.352;2022-12-19T11:02:34;21.10;;;11.30;;
41077;SDS011;26823;42.662;23.352;2022-12-19T11:05:26;23.52;;;12.27;;
41077;SDS011;26823;42.662;23.352;2022-12-19T11:08:12;21.45;;;10.77;;
41077;SDS011;26823;42.662;23.352;2022-12-19T11:13:17;19.83;;;10.05;;
41077;SDS011;26823;42.662;23.352;2022-12-19T11:15:51;23.85;;;11.10;;
41077;SDS011;26823;42.662;23.352;2022-12-19T11:18:18;25.00;;;11.68;;
41077;SDS011;26823;42.662;23.352;2022-12-19T11:20:53;20.35;;;10.18;;
41077;SDS011;26823;42.662;23.352;2022-12-19T11:23:19;23.35;;;10.50;;
41077;SDS011;26823;42.662;23.352;2022-12-19T11:25:44;24.77;;;11.70;;
41077;SDS011;26823;42.662;23.352;2022-12-19T11:31:20;22.63;;;9.65;;
41077;SDS011;26823;42.662;23.352;2022-12-19T11:33:44;24.67;;;11.50;;
41077;SDS011;26823;42.662;23.352;2022-12-19T11:36:10;20.02;;;9.25;;
41077;SDS011;26823;42.662;23.352;2022-12-19T11:38:57;18.83;;;8.25;;
41077;SDS011;26823;42.662;23.352;2022-12-19T11:41:35;18.83;;;9.32;;
41077;SDS011;26823;42.662;23.352;2022-12-19T11:44:11;15.00;;;8.50;;
41077;SDS011;26823;42.662;23.352;2022-12-19T11:47:16;20.80;;;8.27;;
41077;SDS011;26823;42.662;23.352;2022-12-19T11:50:00;12.88;;;7.53;;
41077;SDS011;26823;42.662;23.352;2022-12-19T11:57:59;17.52;;;7.35;;
41077;SDS011;26823;42.662;23.352;2022-12-19T12:00:24;16.50;;;7.55;;
41077;SDS011;26823;42.662;23.352;2022-12-19T12:03:15;18.20;;;9.27;;
41077;SDS011;26823;42.662;23.352;2022-12-19T12:05:42;12.52;;;7.63;;
41077;SDS011;26823;42.662;23.352;2022-12-19T12:11:36;13.82;;;8.02;;
41077;SDS011;26823;42.662;23.352;2022-12-19T12:17:09;13.30;;;7.07;;
41077;SDS011;26823;42.662;23.352;2022-12-19T12:30:42;14.63;;;7.47;;
41077;SDS011;26823;42.662;23.352;2022-12-19T12:33:24;17.45;;;8.00;;
41077;SDS011;26823;42.662;23.352;2022-12-19T12:36:03;16.67;;;8.25;;
41077;SDS011;26823;42.662;23.352;2022-12-19T12:39:41;15.02;;;8.00;;
41077;SDS011;26823;42.662;23.352;2022-12-19T12:44:37;16.45;;;7.97;;
41077;SDS011;26823;42.662;23.352;2022-12-19T12:50:11;16.00;;;7.85;;
41077;SDS011;26823;42.662;23.352;2022-12-19T12:52:42;15.85;;;7.90;;
41077;SDS011;26823;42.662;23.352;2022-12-19T12:57:46;12.63;;;7.35;;
41077;SDS011;26823;42.662;23.352;2022-12-19T13:02:44;12.00;;;6.80;;
41077;SDS011;26823;42.662;23.352;2022-12-19T13:05:28;13.68;;;7.13;;
41077;SDS011;26823;42.662;23.352;2022-12-19T13:08:00;11.93;;;6.68;;
41077;SDS011;26823;42.662;23.352;2022-12-19T13:10:30;11.43;;;6.22;;
41077;SDS011;26823;42.662;23.352;2022-12-19T13:23:02;12.48;;;6.13;;
41077;SDS011;26823;42.662;23.352;2022-12-19T13:27:55;10.57;;;6.13;;
41077;SDS011;26823;42.662;23.352;2022-12-19T13:30:22;12.85;;;6.57;;
41077;SDS011;26823;42.662;23.352;2022-12-19T13:37:41;11.75;;;7.18;;
41077;SDS011;26823;42.662;23.352;2022-12-19T13:42:37;13.10;;;7.25;;
41077;SDS011;26823;42.662;23.352;2022-12-19T13:45:32;10.55;;;5.80;;
41077;SDS011;26823;42.662;23.352;2022-12-19T13:47:58;12.90;;;6.95;;
41077;SDS011;26823;42.662;23.352;2022-12-19T13:50:30;20.65;;;7.90;;
41077;SDS011;26823;42.662;23.352;2022-12-19T13:53:00;15.27;;;7.50;;
41077;SDS011;26823;42.662;23.352;2022-12-19T13:55:29;13.27;;;7.40;;
41077;SDS011;26823;42.662;23.352;2022-12-19T13:57:55;11.90;;;6.50;;
41077;SDS011;26823;42.662;23.352;2022-12-19T14:00:29;12.60;;;6.63;;
41077;SDS011;26823;42.662;23.352;2022-12-19T14:02:59;11.45;;;6.25;;
41077;SDS011;26823;42.662;23.352;2022-12-19T14:05:31;15.75;;;7.32;;
41077;SDS011;26823;42.662;23.352;2022-12-19T14:08:01;15.52;;;6.65;;
41077;SDS011;26823;42.662;23.352;2022-12-19T14:10:34;10.88;;;6.47;;
41077;SDS011;26823;42.662;23.352;2022-12-19T14:13:04;11.82;;;6.50;;
41077;SDS011;26823;42.662;23.352;2022-12-19T14:15:53;11.10;;;5.97;;
41077;SDS011;26823;42.662;23.352;2022-12-19T14:18:21;12.68;;;7.10;;
41077;SDS011;26823;42.662;23.352;2022-12-19T14:23:52;10.18;;;6.25;;
41077;SDS011;26823;42.662;23.352;2022-12-19T14:26:38;10.85;;;6.53;;
41077;SDS011;26823;42.662;23.352;2022-12-19T14:29:09;14.52;;;6.47;;
41077;SDS011;26823;42.662;23.352;2022-12-19T14:31:39;12.02;;;6.47;;
41077;SDS011;26823;42.662;23.352;2022-12-19T14:34:05;10.40;;;6.72;;
41077;SDS011;26823;42.662;23.352;2022-12-19T14:36:41;11.50;;;7.05;;
41077;SDS011;26823;42.662;23.352;2022-12-19T14:39:15;12.27;;;5.97;;
41077;SDS011;26823;42.662;23.352;2022-12-19T14:41:42;13.23;;;7.20;;
41077;SDS011;26823;42.662;23.352;2022-12-19T14:44:42;10.85;;;6.30;;
41077;SDS011;26823;42.662;23.352;2022-12-19T14:47:12;9.65;;;5.57;;
41077;SDS011;26823;42.662;23.352;2022-12-19T14:49:45;12.48;;;6.65;;
41077;SDS011;26823;42.662;23.352;2022-12-19T14:57:55;13.52;;;5.78;;
41077;SDS011;26823;42.662;23.352;2022-12-19T15:02:56;18.35;;;7.70;;
41077;SDS011;26823;42.662;23.352;2022-12-19T15:05:26;12.43;;;6.38;;
41077;SDS011;26823;42.662;23.352;2022-12-19T15:07:54;11.35;;;6.60;;
41077;SDS011;26823;42.662;23.352;2022-12-19T15:10:22;16.42;;;7.93;;
41077;SDS011;26823;42.662;23.352;2022-12-19T15:15:37;13.95;;;7.40;;
41077;SDS011;26823;42.662;23.352;2022-12-19T15:18:22;13.68;;;6.75;;
41077;SDS011;26823;42.662;23.352;2022-12-19T15:20:48;11.02;;;6.25;;
41077;SDS011;26823;42.662;23.352;2022-12-19T15:23:15;14.70;;;7.30;;
41077;SDS011;26823;42.662;23.352;2022-12-19T15:25:41;14.68;;;6.80;;
41077;SDS011;26823;42.662;23.352;2022-12-19T15:28:13;17.83;;;7.82;;
41077;SDS011;26823;42.662;23.352;2022-12-19T15:30:41;15.85;;;7.93;;
41077;SDS011;26823;42.662;23.352;2022-12-19T15:33:11;16.65;;;7.25;;
41077;SDS011;26823;42.662;23.352;2022-12-19T15:35:38;12.02;;;6.90;;
41077;SDS011;26823;42.662;23.352;2022-12-19T15:38:03;15.48;;;6.85;;
41077;SDS011;26823;42.662;23.352;2022-12-19T15:40:29;15.02;;;7.70;;
41077;SDS011;26823;42.662;23.352;2022-12-19T15:42:54;19.67;;;8.13;;
41077;SDS011;26823;42.662;23.352;2022-12-19T15:45:21;18.27;;;8.98;;
41077;SDS011;26823;42.662;23.352;2022-12-19T15:47:47;17.50;;;9.05;;
41077;SDS011;26823;42.662;23.352;2022-12-19T15:50:23;19.55;;;9.82;;
41077;SDS011;26823;42.662;23.352;2022-12-19T15:52:51;22.52;;;9.60;;
41077;SDS011;26823;42.662;23.352;2022-12-19T15:55:27;19.15;;;10.30;;
41077;SDS011;26823;42.662;23.352;2022-12-19T15:57:55;20.70;;;9.52;;
41077;SDS011;26823;42.662;23.352;2022-12-19T16:00:24;23.17;;;10.05;;
41077;SDS011;26823;42.662;23.352;2022-12-19T16:02:53;22.73;;;10.50;;
41077;SDS011;26823;42.662;23.352;2022-12-19T16:05:20;23.58;;;10.13;;
41077;SDS011;26823;42.662;23.352;2022-12-19T16:07:47;17.92;;;10.15;;
41077;SDS011;26823;42.662;23.352;2022-12-19T16:10:13;22.40;;;10.35;;
41077;SDS011;26823;42.662;23.352;2022-12-19T16:12:40;21.20;;;9.88;;
41077;SDS011;26823;42.662;23.352;2022-12-19T16:15:16;18.67;;;10.38;;
41077;SDS011;26823;42.662;23.352;2022-12-19T16:17:46;20.83;;;10.00;;
41077;SDS011;26823;42.662;23.352;2022-12-19T16:20:15;26.65;;;10.25;;
41077;SDS011;26823;42.662;23.352;2022-12-19T16:22:42;20.20;;;9.00;;
41077;SDS011;26823;42.662;23.352;2022-12-19T16:25:08;19.65;;;10.07;;
41077;SDS011;26823;42.662;23.352;2022-12-19T16:27:35;19.90;;;9.88;;
41077;SDS011;26823;42.662;23.352;2022-12-19T16:30:05;20.88;;;9.70;;
41077;SDS011;26823;42.662;23.352;2022-12-19T16:32:51;20.25;;;10.63;;
41077;SDS011;26823;42.662;23.352;2022-12-19T16:35:19;22.98;;;9.50;;
41077;SDS011;26823;42.662;23.352;2022-12-19T16:37:48;20.42;;;10.93;;
41077;SDS011;26823;42.662;23.352;2022-12-19T16:40:15;20.63;;;10.23;;
41077;SDS011;26823;42.662;23.352;2022-12-19T16:42:42;19.15;;;9.90;;
41077;SDS011;26823;42.662;23.352;2022-12-19T16:47:42;22.52;;;11.15;;
41077;SDS011;26823;42.662;23.352;2022-12-19T16:50:41;20.80;;;9.68;;
41077;SDS011;26823;42.662;23.352;2022-12-19T16:52:59;26.58;;;11.75;;
41077;SDS011;26823;42.662;23.352;2022-12-19T16:55:25;22.23;;;9.38;;
41077;SDS011;26823;42.662;23.352;2022-12-19T16:57:51;19.85;;;11.40;;
41077;SDS011;26823;42.662;23.352;2022-12-19T17:00:19;20.98;;;11.15;;
41077;SDS011;26823;42.662;23.352;2022-12-19T17:02:50;22.95;;;10.05;;
41077;SDS011;26823;42.662;23.352;2022-12-19T17:07:47;23.60;;;10.80;;